Time;durP1;ratioP1;P1;durP2;ratioP2;P2;SDS_P1;SDS_P2;PMS_P1;PMS_P2;Temp;Humidity;BMP_temperature;BMP_pressure;BME280_temperature;BME280_humidity;BME280_pressure;Samples;Min_cycle;Max_cycle;Signal;HPM_P1;HPM_P2
2023/09/17 00:00:59;;;;;;;4.95;2.70;;;;;;;;;;5074254;28;20040;-85
2023/09/17 00:03:25;;;;;;;4.45;2.67;;;;;;;;;;5075641;28;20053;-85
2023/09/17 00:05:51;;;;;;;4.63;2.40;;;;;;;;;;5082184;28;20100;-85
2023/09/17 00:08:18;;;;;;;3.22;2.58;;;;;;;;;;5082324;28;20033;-85
2023/09/17 00:10:45;;;;;;;3.33;2.70;;;;;;;;;;5076936;28;20040;-84
2023/09/17 00:13:12;;;;;;;3.70;2.50;;;;;;;;;;5088637;28;20088;-84
2023/09/17 00:15:38;;;;;;;5.85;2.83;;;;;;;;;;5077217;28;20032;-83
2023/09/17 00:18:04;;;;;;;3.55;2.50;;;;;;;;;;5072576;28;20033;-85
2023/09/17 00:20:29;;;;;;;3.22;2.58;;;;;;;;;;5076696;28;20048;-85
2023/09/17 00:22:55;;;;;;;5.15;2.72;;;;;;;;;;5086871;28;20056;-86
2023/09/17 00:25:20;;;;;;;3.70;2.67;;;;;;;;;;5081085;28;20037;-86
2023/09/17 00:27:46;;;;;;;7.03;2.60;;;;;;;;;;5078833;28;20044;-85
2023/09/17 00:30:13;;;;;;;7.18;2.55;;;;;;;;;;5082238;28;20028;-84
2023/09/17 00:32:39;;;;;;;8.43;2.47;;;;;;;;;;5077628;28;20029;-85
2023/09/17 00:35:05;;;;;;;3.47;2.50;;;;;;;;;;5073743;28;20040;-84
2023/09/17 00:37:31;;;;;;;2.80;2.38;;;;;;;;;;5074437;28;20040;-84
2023/09/17 00:39:57;;;;;;;4.15;2.28;;;;;;;;;;5086705;28;20043;-84
2023/09/17 00:42:23;;;;;;;3.30;2.40;;;;;;;;;;5073428;28;20052;-86
2023/09/17 00:44:48;;;;;;;2.80;2.50;;;;;;;;;;5091341;28;20482;-86
2023/09/17 00:47:14;;;;;;;3.40;2.70;;;;;;;;;;5085934;28;20028;-85
2023/09/17 00:49:40;;;;;;;3.83;2.75;;;;;;;;;;5077414;28;20048;-85
2023/09/17 00:52:19;;;;;;;3.38;2.70;;;;;;;;;;5086739;28;20100;-85
2023/09/17 00:54:47;;;;;;;3.95;2.70;;;;;;;;;;5070375;28;20361;-84
2023/09/17 00:57:15;;;;;;;6.72;2.60;;;;;;;;;;5085330;28;20036;-85
2023/09/17 00:59:42;;;;;;;3.70;2.60;;;;;;;;;;5082104;28;20032;-85
2023/09/17 01:02:08;;;;;;;4.50;2.40;;;;;;;;;;5050866;28;20048;-85
2023/09/17 01:04:33;;;;;;;4.68;2.50;;;;;;;;;;5096975;28;20036;-84
2023/09/17 01:07:00;;;;;;;6.57;2.40;;;;;;;;;;5091593;28;20039;-86
2023/09/17 01:09:26;;;;;;;6.68;2.40;;;;;;;;;;5092175;28;20047;-85
2023/09/17 01:11:51;;;;;;;4.80;2.53;;;;;;;;;;5077669;28;20047;-85
2023/09/17 01:14:19;;;;;;;4.15;2.33;;;;;;;;;;5090503;28;20029;-86
2023/09/17 01:16:46;;;;;;;3.75;2.60;;;;;;;;;;5092035;28;20032;-86
2023/09/17 01:19:18;;;;;;;4.13;2.10;;;;;;;;;;5077504;28;20029;-85
2023/09/17 01:22:10;;;;;;;4.93;2.65;;;;;;;;;;5086897;28;20032;-85
2023/09/17 01:24:48;;;;;;;3.15;2.25;;;;;;;;;;5097026;28;20112;-86
2023/09/17 01:27:15;;;;;;;2.92;2.20;;;;;;;;;;5074898;28;20033;-86
2023/09/17 01:29:42;;;;;;;2.72;2.22;;;;;;;;;;5079000;28;20271;-85
2023/09/17 01:32:11;;;;;;;7.03;2.45;;;;;;;;;;5093174;28;20044;-85
2023/09/17 01:34:39;;;;;;;3.00;2.22;;;;;;;;;;5074272;28;20025;-86
2023/09/17 01:37:34;;;;;;;5.72;2.40;;;;;;;;;;5076159;28;20036;-86
2023/09/17 01:40:10;;;;;;;2.55;2.30;;;;;;;;;;5073291;28;20421;-86
2023/09/17 01:42:40;;;;;;;3.58;2.28;;;;;;;;;;5076815;28;20079;-85
2023/09/17 01:45:09;;;;;;;3.33;2.10;;;;;;;;;;5080926;28;20036;-86
2023/09/17 01:47:36;;;;;;;2.88;2.38;;;;;;;;;;5081592;28;20024;-86
2023/09/17 01:50:04;;;;;;;2.75;2.28;;;;;;;;;;5077806;28;20025;-86
2023/09/17 01:52:34;;;;;;;4.97;2.40;;;;;;;;;;5076972;28;20068;-84
2023/09/17 01:55:03;;;;;;;3.55;2.45;;;;;;;;;;5077558;28;20032;-85
2023/09/17 01:57:31;;;;;;;5.25;2.50;;;;;;;;;;5071628;28;20032;-85
2023/09/17 01:59:57;;;;;;;3.67;2.42;;;;;;;;;;5091978;28;20032;-86
2023/09/17 02:02:23;;;;;;;3.65;2.22;;;;;;;;;;5083105;28;20100;-86
2023/09/17 02:04:49;;;;;;;3.28;2.47;;;;;;;;;;5097458;28;20037;-86
2023/09/17 02:07:15;;;;;;;3.45;2.42;;;;;;;;;;5088583;28;20040;-85
2023/09/17 02:09:41;;;;;;;4.43;2.55;;;;;;;;;;5097383;28;20051;-86
2023/09/17 02:12:07;;;;;;;3.30;2.30;;;;;;;;;;5070317;28;20037;-86
2023/09/17 02:14:32;;;;;;;3.30;2.30;;;;;;;;;;5071823;28;20048;-86
2023/09/17 02:16:58;;;;;;;2.80;2.42;;;;;;;;;;5072027;28;20094;-86
2023/09/17 02:19:25;;;;;;;4.57;2.30;;;;;;;;;;5088119;28;20041;-85
2023/09/17 02:21:52;;;;;;;5.57;2.40;;;;;;;;;;5080374;28;20044;-85
2023/09/17 02:24:19;;;;;;;4.53;2.45;;;;;;;;;;5074636;28;20028;-85
2023/09/17 02:26:45;;;;;;;4.25;2.28;;;;;;;;;;5082731;28;20024;-86
2023/09/17 02:29:11;;;;;;;4.18;2.30;;;;;;;;;;5077309;28;20036;-86
2023/09/17 02:31:37;;;;;;;4.10;2.35;;;;;;;;;;5074979;28;20154;-86
2023/09/17 02:34:03;;;;;;;3.42;2.47;;;;;;;;;;5075223;28;20025;-85
2023/09/17 02:36:29;;;;;;;3.63;2.30;;;;;;;;;;5087714;28;20055;-86
2023/09/17 02:38:54;;;;;;;3.28;2.20;;;;;;;;;;5079608;28;20025;-86
2023/09/17 02:41:20;;;;;;;3.38;2.15;;;;;;;;;;5073170;28;20101;-86
2023/09/17 02:43:45;;;;;;;2.97;2.40;;;;;;;;;;5078143;28;20032;-86
2023/09/17 02:46:12;;;;;;;2.85;2.20;;;;;;;;;;5079562;28;20041;-87
2023/09/17 02:48:37;;;;;;;3.03;2.10;;;;;;;;;;5075061;28;20043;-86
2023/09/17 02:51:03;;;;;;;5.50;2.40;;;;;;;;;;5070926;28;20033;-86
2023/09/17 02:53:28;;;;;;;3.03;2.40;;;;;;;;;;5071806;28;20102;-85
2023/09/17 02:55:54;;;;;;;3.42;2.28;;;;;;;;;;5086037;28;20063;-85
2023/09/17 02:58:20;;;;;;;3.35;2.28;;;;;;;;;;5072473;28;20052;-86
2023/09/17 03:00:46;;;;;;;3.75;2.40;;;;;;;;;;5083206;28;20048;-86
2023/09/17 03:03:12;;;;;;;3.72;2.60;;;;;;;;;;5068367;28;20140;-87
2023/09/17 03:05:40;;;;;;;4.95;2.67;;;;;;;;;;5095085;28;20037;-86
2023/09/17 03:08:09;;;;;;;3.78;2.60;;;;;;;;;;5078222;28;20055;-86
2023/09/17 03:10:42;;;;;;;2.80;2.40;;;;;;;;;;5078105;28;20021;-85
2023/09/17 03:13:10;;;;;;;4.30;2.38;;;;;;;;;;5073032;28;20036;-84
2023/09/17 03:15:36;;;;;;;3.22;2.35;;;;;;;;;;5084205;28;20047;-86
2023/09/17 03:18:02;;;;;;;2.40;2.15;;;;;;;;;;5100064;28;20052;-84
2023/09/17 03:20:33;;;;;;;3.08;2.40;;;;;;;;;;5076982;28;20063;-86
2023/09/17 03:23:04;;;;;;;3.88;2.30;;;;;;;;;;5071130;28;20060;-85
2023/09/17 03:25:33;;;;;;;4.00;2.38;;;;;;;;;;5076581;28;20047;-86
2023/09/17 03:27:59;;;;;;;3.88;2.22;;;;;;;;;;5078436;28;20063;-85
2023/09/17 03:30:27;;;;;;;2.30;2.00;;;;;;;;;;5089342;28;20032;-86
2023/09/17 03:32:53;;;;;;;4.50;2.30;;;;;;;;;;5076146;28;20095;-86
2023/09/17 03:35:19;;;;;;;3.00;2.20;;;;;;;;;;5072797;28;20029;-86
2023/09/17 03:37:45;;;;;;;3.70;2.35;;;;;;;;;;5080832;28;20044;-86
2023/09/17 03:40:12;;;;;;;3.30;2.20;;;;;;;;;;5076857;28;20502;-84
2023/09/17 03:42:42;;;;;;;3.92;2.13;;;;;;;;;;5081307;28;20163;-86
2023/09/17 03:45:13;;;;;;;4.28;2.53;;;;;;;;;;5078558;28;20029;-84
2023/09/17 03:47:40;;;;;;;2.85;2.40;;;;;;;;;;5076744;28;20425;-84
2023/09/17 03:50:06;;;;;;;3.15;2.22;;;;;;;;;;5078141;28;20059;-86
2023/09/17 03:52:37;;;;;;;3.67;2.30;;;;;;;;;;5078400;28;20029;-86
2023/09/17 03:55:07;;;;;;;2.58;2.20;;;;;;;;;;5074137;28;20029;-86
2023/09/17 03:57:37;;;;;;;3.13;2.28;;;;;;;;;;5079055;28;20044;-86
2023/09/17 04:00:10;;;;;;;3.35;2.35;;;;;;;;;;5100573;28;20040;-85
2023/09/17 04:02:40;;;;;;;3.38;2.40;;;;;;;;;;5088772;28;20033;-85
2023/09/17 04:05:13;;;;;;;5.82;2.58;;;;;;;;;;5091132;28;20037;-85
2023/09/17 04:07:43;;;;;;;2.35;2.08;;;;;;;;;;5079373;28;20040;-85
2023/09/17 04:10:10;;;;;;;3.10;2.30;;;;;;;;;;5077076;28;20044;-85
2023/09/17 04:12:37;;;;;;;2.80;2.30;;;;;;;;;;5076818;28;20028;-86
2023/09/17 04:15:16;;;;;;;3.17;2.40;;;;;;;;;;5080305;28;20029;-86
2023/09/17 04:17:43;;;;;;;3.78;2.35;;;;;;;;;;5072786;28;20036;-86
2023/09/17 04:20:13;;;;;;;3.33;2.30;;;;;;;;;;5078943;28;20036;-86
2023/09/17 04:22:42;;;;;;;3.72;2.22;;;;;;;;;;5082036;28;20059;-86
2023/09/17 04:25:09;;;;;;;3.88;2.45;;;;;;;;;;5080614;28;20040;-88
2023/09/17 04:27:38;;;;;;;4.82;2.40;;;;;;;;;;5074006;28;20044;-87
2023/09/17 04:30:06;;;;;;;4.07;2.50;;;;;;;;;;5075579;28;20039;-85
2023/09/17 04:32:39;;;;;;;3.38;2.30;;;;;;;;;;5091946;28;20045;-85
2023/09/17 04:35:07;;;;;;;2.17;1.90;;;;;;;;;;5072853;28;20040;-85
2023/09/17 04:37:37;;;;;;;4.38;2.30;;;;;;;;;;5092024;28;20040;-86
2023/09/17 04:40:11;;;;;;;4.20;2.33;;;;;;;;;;5097073;28;20044;-86
2023/09/17 04:42:38;;;;;;;3.53;2.53;;;;;;;;;;5089500;28;20064;-85
2023/09/17 04:45:05;;;;;;;2.63;2.30;;;;;;;;;;5088663;28;20025;-85
2023/09/17 04:47:34;;;;;;;3.35;2.33;;;;;;;;;;5057303;28;20054;-87
2023/09/17 04:50:02;;;;;;;3.38;2.38;;;;;;;;;;5071854;28;20032;-86
2023/09/17 04:52:28;;;;;;;2.70;2.20;;;;;;;;;;5073050;28;20037;-87
2023/09/17 04:54:54;;;;;;;4.82;2.30;;;;;;;;;;5075561;28;20036;-85
2023/09/17 04:57:20;;;;;;;4.30;2.40;;;;;;;;;;5078529;28;20036;-85
2023/09/17 04:59:46;;;;;;;4.53;2.25;;;;;;;;;;5083786;28;20628;-86
2023/09/17 05:02:15;;;;;;;5.68;2.38;;;;;;;;;;5074872;28;20052;-86
2023/09/17 05:04:41;;;;;;;5.07;2.22;;;;;;;;;;5085603;28;20021;-86
2023/09/17 05:07:06;;;;;;;3.28;2.42;;;;;;;;;;5075093;28;20033;-86
2023/09/17 05:09:33;;;;;;;5.47;2.40;;;;;;;;;;5080135;28;20041;-86
2023/09/17 05:11:58;;;;;;;4.72;2.47;;;;;;;;;;5088821;28;20040;-87
2023/09/17 05:14:24;;;;;;;2.95;2.35;;;;;;;;;;5100585;28;20108;-86
2023/09/17 05:16:50;;;;;;;4.90;2.20;;;;;;;;;;5096876;28;20033;-85
2023/09/17 05:19:15;;;;;;;3.00;2.40;;;;;;;;;;5090615;28;20059;-84
2023/09/17 05:21:41;;;;;;;5.95;2.80;;;;;;;;;;5091421;28;20036;-84
2023/09/17 05:24:07;;;;;;;5.30;2.50;;;;;;;;;;5080967;28;20418;-86
2023/09/17 05:26:32;;;;;;;5.05;2.50;;;;;;;;;;5074937;28;20064;-86
2023/09/17 05:28:58;;;;;;;4.70;2.78;;;;;;;;;;5070540;28;20091;-86
2023/09/17 05:31:23;;;;;;;6.00;2.53;;;;;;;;;;5087360;28;20049;-83
2023/09/17 05:33:50;;;;;;;7.38;3.40;;;;;;;;;;5086421;28;20025;-84
2023/09/17 05:36:15;;;;;;;5.07;2.75;;;;;;;;;;5080895;28;20052;-84
2023/09/17 05:38:41;;;;;;;5.05;2.92;;;;;;;;;;5089677;28;20051;-85
2023/09/17 05:41:07;;;;;;;4.82;2.70;;;;;;;;;;5076921;28;20486;-85
2023/09/17 05:43:33;;;;;;;3.78;2.50;;;;;;;;;;5082664;28;20156;-86
2023/09/17 05:45:59;;;;;;;4.72;2.67;;;;;;;;;;5088106;28;20040;-86
2023/09/17 05:48:33;;;;;;;3.45;2.50;;;;;;;;;;5070315;28;20092;-86
2023/09/17 05:50:59;;;;;;;4.43;2.50;;;;;;;;;;5082288;28;20049;-86
2023/09/17 05:53:28;;;;;;;3.60;2.47;;;;;;;;;;5084504;28;20031;-84
2023/09/17 05:55:54;;;;;;;5.88;2.60;;;;;;;;;;5095183;28;20039;-83
2023/09/17 05:58:19;;;;;;;3.85;2.58;;;;;;;;;;5094151;28;20036;-83
2023/09/17 06:00:45;;;;;;;2.85;2.20;;;;;;;;;;5088342;28;20037;-84
2023/09/17 06:03:11;;;;;;;2.97;2.50;;;;;;;;;;5072530;28;20033;-85
2023/09/17 06:05:38;;;;;;;3.70;2.50;;;;;;;;;;5076809;28;20037;-85
2023/09/17 06:08:03;;;;;;;2.80;2.47;;;;;;;;;;5077478;28;20041;-86
2023/09/17 06:10:29;;;;;;;2.58;2.38;;;;;;;;;;5081413;28;20127;-84
2023/09/17 06:12:54;;;;;;;5.45;2.42;;;;;;;;;;5080105;28;20043;-83
2023/09/17 06:15:20;;;;;;;3.72;2.38;;;;;;;;;;5090003;28;20040;-83
2023/09/17 06:17:45;;;;;;;5.60;2.20;;;;;;;;;;5077266;28;20041;-85
2023/09/17 06:20:11;;;;;;;3.25;2.30;;;;;;;;;;5076236;28;20104;-82
2023/09/17 06:22:36;;;;;;;4.35;2.42;;;;;;;;;;5074022;28;20033;-84
2023/09/17 06:25:03;;;;;;;3.60;2.35;;;;;;;;;;5083453;28;20041;-85
2023/09/17 06:27:30;;;;;;;4.38;2.30;;;;;;;;;;5082902;28;20044;-84
2023/09/17 06:29:55;;;;;;;3.42;2.30;;;;;;;;;;5085317;28;20047;-84
2023/09/17 06:32:23;;;;;;;4.53;2.63;;;;;;;;;;5066711;28;20268;-84
2023/09/17 06:34:48;;;;;;;5.57;2.30;;;;;;;;;;5086981;28;20036;-85
2023/09/17 06:37:14;;;;;;;3.88;2.25;;;;;;;;;;5069839;28;20032;-85
2023/09/17 06:39:42;;;;;;;4.45;2.28;;;;;;;;;;5094319;28;20661;-85
2023/09/17 06:42:07;;;;;;;2.40;2.08;;;;;;;;;;5074047;28;20040;-85
2023/09/17 06:44:33;;;;;;;6.80;2.20;;;;;;;;;;5071436;28;20036;-86
2023/09/17 06:46:58;;;;;;;2.40;2.00;;;;;;;;;;5071663;28;20120;-85
2023/09/17 06:49:24;;;;;;;4.00;2.30;;;;;;;;;;5067101;28;20079;-84
2023/09/17 06:51:52;;;;;;;3.90;2.33;;;;;;;;;;5078980;28;20075;-84
2023/09/17 06:54:17;;;;;;;2.47;2.03;;;;;;;;;;5074473;28;20021;-85
2023/09/17 06:56:43;;;;;;;3.33;2.13;;;;;;;;;;5077082;28;20465;-87
2023/09/17 06:59:08;;;;;;;4.38;2.10;;;;;;;;;;5073522;28;20040;-85
2023/09/17 07:01:34;;;;;;;5.22;2.10;;;;;;;;;;5088877;28;20036;-86
2023/09/17 07:04:00;;;;;;;3.95;2.45;;;;;;;;;;5073582;28;20105;-86
2023/09/17 07:06:25;;;;;;;3.50;2.20;;;;;;;;;;5070788;28;20037;-86
2023/09/17 07:08:53;;;;;;;3.50;2.25;;;;;;;;;;5068140;28;20029;-87
2023/09/17 07:11:19;;;;;;;3.45;2.28;;;;;;;;;;5071873;28;20059;-84
2023/09/17 07:13:44;;;;;;;3.08;2.40;;;;;;;;;;5077808;28;20040;-87
2023/09/17 07:16:10;;;;;;;2.53;2.22;;;;;;;;;;5077770;28;20032;-87
2023/09/17 07:18:35;;;;;;;6.05;2.38;;;;;;;;;;5072203;28;20040;-86
2023/09/17 07:21:01;;;;;;;2.67;2.25;;;;;;;;;;5073100;28;20106;-87
2023/09/17 07:23:26;;;;;;;2.70;2.20;;;;;;;;;;5069342;28;20041;-86
2023/09/17 07:25:52;;;;;;;5.80;2.40;;;;;;;;;;5070330;28;20029;-83
2023/09/17 07:28:18;;;;;;;4.47;2.13;;;;;;;;;;5066278;28;20044;-89
2023/09/17 07:30:44;;;;;;;3.03;2.35;;;;;;;;;;5075717;28;20033;-86
2023/09/17 07:33:09;;;;;;;2.72;1.98;;;;;;;;;;5072377;28;20087;-87
2023/09/17 07:35:38;;;;;;;4.70;2.47;;;;;;;;;;5075084;28;20024;-87
2023/09/17 07:38:04;;;;;;;3.47;2.08;;;;;;;;;;5077420;28;20049;-88
2023/09/17 07:40:30;;;;;;;5.32;2.28;;;;;;;;;;5072635;28;20134;-88
2023/09/17 07:42:56;;;;;;;2.67;2.10;;;;;;;;;;5071534;28;20055;-86
2023/09/17 07:45:21;;;;;;;6.97;2.15;;;;;;;;;;5069874;28;20048;-86
2023/09/17 07:47:46;;;;;;;2.65;2.03;;;;;;;;;;5067575;28;20063;-88
2023/09/17 07:50:12;;;;;;;2.58;2.15;;;;;;;;;;5068295;28;20028;-88
2023/09/17 07:52:40;;;;;;;3.08;2.25;;;;;;;;;;5082882;28;20033;-86
2023/09/17 07:55:06;;;;;;;5.18;2.20;;;;;;;;;;5076884;28;20028;-87
2023/09/17 07:57:31;;;;;;;3.45;2.20;;;;;;;;;;5072416;28;20062;-85
2023/09/17 07:59:57;;;;;;;2.97;2.08;;;;;;;;;;5071273;28;20066;-87
2023/09/17 08:02:22;;;;;;;4.32;2.22;;;;;;;;;;5072720;28;20045;-88
2023/09/17 08:04:48;;;;;;;3.95;2.10;;;;;;;;;;5073614;28;20037;-86
2023/09/17 08:07:13;;;;;;;4.45;2.40;;;;;;;;;;5084224;28;20036;-86
2023/09/17 08:09:39;;;;;;;6.40;2.30;;;;;;;;;;5083497;28;20100;-87
2023/09/17 08:12:05;;;;;;;2.65;2.17;;;;;;;;;;5077537;28;20035;-87
2023/09/17 08:14:34;;;;;;;3.63;2.10;;;;;;;;;;5074316;28;20041;-86
2023/09/17 08:17:03;;;;;;;3.97;2.17;;;;;;;;;;5074611;28;20102;-85
2023/09/17 08:19:29;;;;;;;2.72;2.10;;;;;;;;;;5067284;28;20052;-85
2023/09/17 08:21:54;;;;;;;4.97;2.10;;;;;;;;;;5061928;28;20049;-85
2023/09/17 08:24:20;;;;;;;4.38;2.20;;;;;;;;;;5059006;28;20041;-87
2023/09/17 08:26:49;;;;;;;2.97;2.10;;;;;;;;;;5059461;28;20067;-87
2023/09/17 08:29:15;;;;;;;2.95;2.10;;;;;;;;;;5060312;28;20037;-87
2023/09/17 08:31:40;;;;;;;2.55;2.13;;;;;;;;;;5061493;28;20039;-86
2023/09/17 08:34:06;;;;;;;3.55;1.98;;;;;;;;;;5069509;28;20044;-87
2023/09/17 08:36:32;;;;;;;3.08;2.13;;;;;;;;;;5065198;28;20028;-87
2023/09/17 08:38:58;;;;;;;3.15;2.03;;;;;;;;;;5065303;28;20110;-88
2023/09/17 08:41:23;;;;;;;2.53;2.03;;;;;;;;;;5060900;28;20036;-85
2023/09/17 08:43:52;;;;;;;2.35;2.10;;;;;;;;;;5061995;28;20036;-85
2023/09/17 08:46:18;;;;;;;3.63;2.10;;;;;;;;;;5063877;28;20054;-83
2023/09/17 08:48:45;;;;;;;3.83;2.10;;;;;;;;;;5062789;28;20056;-85
2023/09/17 08:51:13;;;;;;;3.10;1.90;;;;;;;;;;5071557;28;20030;-86
2023/09/17 08:53:53;;;;;;;3.47;2.22;;;;;;;;;;5071447;28;20495;-86
2023/09/17 08:56:19;;;;;;;2.33;2.00;;;;;;;;;;5066531;28;20040;-85
2023/09/17 08:59:00;;;;;;;3.47;2.13;;;;;;;;;;5068669;28;20061;-87
2023/09/17 09:01:26;;;;;;;3.50;2.10;;;;;;;;;;5073692;28;20111;-86
2023/09/17 09:03:53;;;;;;;3.42;2.00;;;;;;;;;;5074152;28;20036;-83
2023/09/17 09:06:21;;;;;;;5.82;2.10;;;;;;;;;;5051579;28;20450;-84
2023/09/17 09:08:48;;;;;;;2.70;2.10;;;;;;;;;;5062743;28;20091;-85
2023/09/17 09:11:14;;;;;;;2.42;1.85;;;;;;;;;;5068334;28;20079;-83
2023/09/17 09:13:41;;;;;;;3.13;1.95;;;;;;;;;;5063587;28;20033;-83
2023/09/17 09:16:06;;;;;;;4.78;2.30;;;;;;;;;;5069030;28;20039;-84
2023/09/17 09:18:32;;;;;;;2.50;2.10;;;;;;;;;;5068990;28;20050;-84
2023/09/17 09:20:57;;;;;;;2.88;2.08;;;;;;;;;;5065791;28;20028;-84
2023/09/17 09:23:23;;;;;;;2.70;2.30;;;;;;;;;;5064054;28;20069;-85
2023/09/17 09:25:49;;;;;;;4.05;2.20;;;;;;;;;;5061806;28;20033;-83
2023/09/17 09:28:14;;;;;;;2.85;2.03;;;;;;;;;;5060666;28;20506;-83
2023/09/17 09:30:42;;;;;;;3.25;2.10;;;;;;;;;;5082063;28;20040;-83
2023/09/17 09:33:07;;;;;;;3.50;2.17;;;;;;;;;;5077664;28;20033;-83
2023/09/17 09:35:33;;;;;;;4.30;2.40;;;;;;;;;;5069714;28;20418;-84
2023/09/17 09:38:01;;;;;;;6.78;2.30;;;;;;;;;;5065367;28;20056;-84
2023/09/17 09:40:27;;;;;;;2.50;2.20;;;;;;;;;;5063788;28;20387;-84
2023/09/17 09:42:52;;;;;;;3.15;2.15;;;;;;;;;;5064354;28;20044;-84
2023/09/17 09:45:18;;;;;;;2.65;2.10;;;;;;;;;;5061525;28;20040;-85
2023/09/17 09:47:51;;;;;;;4.85;2.03;;;;;;;;;;5064556;28;20047;-84
2023/09/17 09:50:34;;;;;;;3.08;2.20;;;;;;;;;;5073671;28;20040;-83
2023/09/17 09:53:00;;;;;;;;;;;;;;;;;;5069996;28;20040;-83
2023/09/17 09:55:27;;;;;;;6.30;2.10;;;;;;;;;;5068530;28;20405;-83
2023/09/17 09:57:53;;;;;;;3.63;2.20;;;;;;;;;;5068648;28;20090;-84
2023/09/17 10:00:26;;;;;;;4.38;2.10;;;;;;;;;;5065427;28;20052;-84
2023/09/17 10:02:52;;;;;;;2.50;2.08;;;;;;;;;;5078516;28;20126;-84
2023/09/17 10:05:34;;;;;;;3.75;2.33;;;;;;;;;;5064266;28;20066;-84
2023/09/17 10:08:04;;;;;;;2.95;2.03;;;;;;;;;;5058412;28;20036;-83
2023/09/17 10:10:30;;;;;;;3.05;2.25;;;;;;;;;;5070470;28;20037;-83
2023/09/17 10:12:56;;;;;;;4.63;2.78;;;;;;;;;;5068517;28;20089;-83
2023/09/17 10:15:21;;;;;;;2.40;2.10;;;;;;;;;;5074077;28;20090;-83
2023/09/17 10:17:48;;;;;;;3.05;2.30;;;;;;;;;;5072310;28;20040;-85
2023/09/17 10:20:15;;;;;;;4.40;2.10;;;;;;;;;;5065528;28;20072;-84
2023/09/17 10:22:42;;;;;;;2.55;2.08;;;;;;;;;;5068797;28;20040;-84
2023/09/17 10:25:09;;;;;;;2.58;1.92;;;;;;;;;;5063482;28;20048;-82
2023/09/17 10:27:36;;;;;;;2.60;1.98;;;;;;;;;;5061929;28;20025;-84
2023/09/17 10:30:04;;;;;;;2.33;2.10;;;;;;;;;;5067540;28;20048;-83
2023/09/17 10:32:34;;;;;;;3.35;2.08;;;;;;;;;;5069831;28;20033;-83
2023/09/17 10:35:00;;;;;;;3.83;2.08;;;;;;;;;;5067140;28;20171;-84
2023/09/17 10:37:27;;;;;;;3.00;2.13;;;;;;;;;;5061580;28;20053;-84
2023/09/17 10:39:54;;;;;;;2.80;2.22;;;;;;;;;;5066125;28;20037;-83
2023/09/17 10:42:21;;;;;;;2.20;2.00;;;;;;;;;;5061234;28;20041;-83
2023/09/17 10:44:51;;;;;;;2.92;1.90;;;;;;;;;;5059072;28;20765;-83
2023/09/17 10:47:18;;;;;;;2.35;2.05;;;;;;;;;;5069299;28;20135;-82
2023/09/17 10:49:44;;;;;;;3.42;2.05;;;;;;;;;;5071143;28;20043;-82
2023/09/17 10:52:12;;;;;;;4.55;2.28;;;;;;;;;;5064459;28;20127;-83
2023/09/17 10:54:38;;;;;;;3.33;1.90;;;;;;;;;;5062541;28;20063;-83
2023/09/17 10:57:19;;;;;;;3.10;2.22;;;;;;;;;;5066361;28;20032;-83
2023/09/17 10:59:45;;;;;;;2.55;2.00;;;;;;;;;;5078188;28;20163;-81
2023/09/17 11:02:13;;;;;;;2.60;2.20;;;;;;;;;;5059333;28;20478;-83
2023/09/17 11:04:39;;;;;;;3.92;2.10;;;;;;;;;;5061786;28;20048;-83
2023/09/17 11:07:07;;;;;;;2.72;2.10;;;;;;;;;;5060272;28;20086;-83
2023/09/17 11:09:34;;;;;;;2.97;2.13;;;;;;;;;;5063264;28;20506;-83
2023/09/17 11:12:01;;;;;;;2.58;2.20;;;;;;;;;;5067045;28;20534;-83
2023/09/17 11:14:29;;;;;;;3.08;2.10;;;;;;;;;;5066929;28;20029;-84
2023/09/17 11:16:54;;;;;;;2.38;2.03;;;;;;;;;;5064748;28;20041;-82
2023/09/17 11:19:20;;;;;;;3.42;2.20;;;;;;;;;;5063332;28;20075;-86
2023/09/17 11:22:06;;;;;;;3.60;2.15;;;;;;;;;;5069956;28;20047;-86
2023/09/17 11:24:32;;;;;;;2.42;2.00;;;;;;;;;;5075183;28;20025;-88
2023/09/17 11:27:01;;;;;;;2.75;2.17;;;;;;;;;;5071972;28;20049;-84
2023/09/17 11:29:46;;;;;;;4.40;2.22;;;;;;;;;;5065952;28;20029;-85
2023/09/17 11:32:19;;;;;;;2.42;1.92;;;;;;;;;;5085957;28;20032;-84
2023/09/17 11:34:44;;;;;;;;;;;;;;;;;;5068821;28;20487;-84
2023/09/17 11:37:13;;;;;;;3.08;2.30;;;;;;;;;;5066784;28;19909;-84
2023/09/17 11:39:51;;;;;;;2.42;2.05;;;;;;;;;;5080317;28;20037;-84
2023/09/17 11:42:17;;;;;;;4.05;2.30;;;;;;;;;;5064258;28;20073;-84
2023/09/17 11:44:44;;;;;;;3.95;2.30;;;;;;;;;;5061852;28;20029;-87
2023/09/17 11:47:12;;;;;;;3.00;2.40;;;;;;;;;;5066639;28;20056;-87
2023/09/17 11:49:39;;;;;;;3.40;2.40;;;;;;;;;;5064300;28;20032;-87
2023/09/17 11:52:12;;;;;;;2.80;2.20;;;;;;;;;;5075668;28;20040;-87
2023/09/17 11:54:52;;;;;;;3.58;2.20;;;;;;;;;;5073188;28;20025;-84
2023/09/17 11:57:26;;;;;;;2.63;2.15;;;;;;;;;;5078484;28;20040;-87
2023/09/17 11:59:51;;;;;;;3.72;2.45;;;;;;;;;;5066275;28;20446;-86
2023/09/17 12:02:18;;;;;;;4.53;2.40;;;;;;;;;;5066252;28;20458;-84
2023/09/17 12:04:45;;;;;;;2.42;2.22;;;;;;;;;;5070197;28;20174;-84
2023/09/17 12:07:12;;;;;;;2.47;2.08;;;;;;;;;;5072818;28;20040;-85
2023/09/17 12:09:52;;;;;;;3.50;2.30;;;;;;;;;;5065223;28;20043;-84
2023/09/17 12:12:19;;;;;;;5.57;2.28;;;;;;;;;;5076366;28;20036;-84
2023/09/17 12:14:47;;;;;;;3.50;2.20;;;;;;;;;;5076007;28;20035;-86
2023/09/17 12:17:13;;;;;;;4.15;2.28;;;;;;;;;;5075323;28;20024;-87
2023/09/17 12:19:39;;;;;;;5.68;2.40;;;;;;;;;;5069124;28;20052;-87
2023/09/17 12:22:08;;;;;;;4.00;2.30;;;;;;;;;;5066589;28;20123;-87
2023/09/17 12:24:44;;;;;;;4.35;2.10;;;;;;;;;;5067087;28;20037;-84
2023/09/17 12:27:24;;;;;;;3.08;2.30;;;;;;;;;;5063861;28;20075;-85
2023/09/17 12:29:52;;;;;;;5.68;2.70;;;;;;;;;;5075061;28;20036;-86
2023/09/17 12:32:19;;;;;;;6.07;2.33;;;;;;;;;;5082431;28;20093;-88
2023/09/17 12:34:47;;;;;;;5.07;2.38;;;;;;;;;;5085544;28;20033;-86
2023/09/17 12:37:13;;;;;;;4.10;2.28;;;;;;;;;;5095414;28;20036;-85
2023/09/17 12:39:42;;;;;;;4.78;2.30;;;;;;;;;;5083056;28;20116;-86
2023/09/17 12:42:07;;;;;;;3.95;2.28;;;;;;;;;;5085064;28;20104;-87
2023/09/17 12:44:33;;;;;;;2.60;2.20;;;;;;;;;;5076180;28;20032;-87
2023/09/17 12:46:59;;;;;;;3.65;2.30;;;;;;;;;;5069808;28;20037;-85
2023/09/17 12:49:26;;;;;;;3.63;2.63;;;;;;;;;;5074239;28;20058;-86
2023/09/17 12:51:51;;;;;;;3.40;2.35;;;;;;;;;;5086012;28;20046;-87
2023/09/17 12:54:19;;;;;;;5.93;2.47;;;;;;;;;;5077730;28;20116;-84
2023/09/17 12:56:45;;;;;;;4.03;2.72;;;;;;;;;;5071345;28;20048;-85
2023/09/17 12:59:11;;;;;;;7.03;5.47;;;;;;;;;;5071024;28;20032;-84
2023/09/17 13:01:51;;;;;;;7.25;2.90;;;;;;;;;;5082084;28;20051;-88
2023/09/17 13:04:16;;;;;;;3.90;2.47;;;;;;;;;;5067765;28;20054;-87
2023/09/17 13:06:42;;;;;;;4.18;2.30;;;;;;;;;;5068104;28;20041;-86
2023/09/17 13:09:08;;;;;;;3.63;2.13;;;;;;;;;;5088822;28;20032;-87
2023/09/17 13:11:35;;;;;;;7.53;2.28;;;;;;;;;;5079240;28;20032;-87
2023/09/17 13:14:02;;;;;;;5.82;2.40;;;;;;;;;;5077150;28;20044;-86
2023/09/17 13:16:28;;;;;;;3.45;2.28;;;;;;;;;;5073422;28;20031;-85
2023/09/17 13:18:54;;;;;;;2.95;2.30;;;;;;;;;;5074710;28;20124;-84
2023/09/17 13:21:20;;;;;;;3.33;2.08;;;;;;;;;;5071251;28;20413;-86
2023/09/17 13:23:47;;;;;;;3.00;2.47;;;;;;;;;;5070371;28;20034;-87
2023/09/17 13:26:14;;;;;;;3.40;2.33;;;;;;;;;;5066873;28;20039;-88
2023/09/17 13:28:40;;;;;;;5.88;2.45;;;;;;;;;;5072606;28;20039;-86
2023/09/17 13:31:06;;;;;;;3.85;3.13;;;;;;;;;;5081526;28;20035;-85
2023/09/17 13:33:38;;;;;;;4.22;2.67;;;;;;;;;;5077300;28;20032;-85
2023/09/17 13:36:06;;;;;;;3.33;2.03;;;;;;;;;;5076551;28;20047;-86
2023/09/17 13:38:33;;;;;;;3.97;2.38;;;;;;;;;;5076914;28;20036;-84
2023/09/17 13:40:59;;;;;;;3.25;2.60;;;;;;;;;;5072608;28;20056;-85
2023/09/17 13:43:25;;;;;;;2.80;2.20;;;;;;;;;;5071088;28;20041;-86
2023/09/17 13:45:51;;;;;;;2.97;2.30;;;;;;;;;;5068680;28;20037;-87
2023/09/17 13:48:17;;;;;;;3.40;2.15;;;;;;;;;;5065046;28;20047;-88
2023/09/17 13:50:43;;;;;;;5.18;2.65;;;;;;;;;;5079422;28;20039;-88
2023/09/17 13:53:08;;;;;;;3.47;2.20;;;;;;;;;;5074792;28;20029;-86
2023/09/17 13:55:35;;;;;;;6.70;2.28;;;;;;;;;;5069550;28;20078;-85
2023/09/17 13:58:00;;;;;;;2.88;2.10;;;;;;;;;;5064196;28;20397;-84
2023/09/17 14:00:26;;;;;;;3.42;2.72;;;;;;;;;;5069845;28;20116;-85
2023/09/17 14:02:51;;;;;;;3.67;2.47;;;;;;;;;;5062973;28;20029;-89
2023/09/17 14:05:19;;;;;;;4.32;2.25;;;;;;;;;;5064972;28;20033;-88
2023/09/17 14:07:45;;;;;;;2.53;2.17;;;;;;;;;;5054243;28;20082;-89
2023/09/17 14:10:10;;;;;;;3.47;2.13;;;;;;;;;;5061459;28;20032;-89
2023/09/17 14:12:36;;;;;;;6.18;2.17;;;;;;;;;;5060072;28;20039;-90
2023/09/17 14:15:01;;;;;;;3.50;2.00;;;;;;;;;;5058521;28;20037;-88
2023/09/17 14:17:27;;;;;;;2.65;2.05;;;;;;;;;;5050545;28;20033;-89
2023/09/17 14:19:53;;;;;;;4.35;2.20;;;;;;;;;;5077405;28;20109;-89
2023/09/17 14:22:18;;;;;;;2.78;2.08;;;;;;;;;;5059349;28;20032;-88
2023/09/17 14:24:44;;;;;;;2.90;2.28;;;;;;;;;;5056994;28;20025;-88
2023/09/17 14:27:09;;;;;;;2.42;2.15;;;;;;;;;;5065347;28;20035;-88
2023/09/17 14:29:37;;;;;;;5.63;2.10;;;;;;;;;;5068247;28;20047;-87
2023/09/17 14:32:04;;;;;;;6.18;2.20;;;;;;;;;;5057661;28;20040;-89
2023/09/17 14:34:29;;;;;;;3.42;2.13;;;;;;;;;;5059117;28;20029;-89
2023/09/17 14:36:55;;;;;;;3.53;2.00;;;;;;;;;;5059413;28;20044;-85
2023/09/17 14:39:20;;;;;;;3.63;1.98;;;;;;;;;;5068184;28;20059;-86
2023/09/17 14:41:46;;;;;;;3.63;2.22;;;;;;;;;;5065368;28;20008;-86
2023/09/17 14:44:12;;;;;;;3.55;2.20;;;;;;;;;;5062453;28;20027;-86